Time;durP1;ratioP1;P1;durP2;ratioP2;P2;SDS_P1;SDS_P2;PMS_P1;PMS_P2;Temp;Humidity;BMP_temperature;BMP_pressure;BME280_temperature;BME280_humidity;BME280_pressure;Samples;Min_cycle;Max_cycle;Signal;HPM_P1;HPM_P2
2020/12/12 00:00:26;;;;;;;8.02;2.88;;;19.60;53.10;;;;;;5067089;28;20036;-62
2020/12/12 00:02:53;;;;;;;6.05;2.42;;;19.60;53.10;;;;;;5066676;28;20041;-66
2020/12/12 00:05:20;;;;;;;8.88;2.17;;;19.60;53.00;;;;;;5052917;28;20049;-64
2020/12/12 00:07:46;;;;;;;10.57;2.80;;;19.60;53.00;;;;;;5061054;28;20059;-61
2020/12/12 00:10:13;;;;;;;5.72;2.22;;;19.60;53.00;;;;;;5064225;28;20504;-61
2020/12/12 00:12:41;;;;;;;6.30;1.58;;;19.70;53.10;;;;;;5056035;28;20156;-61
2020/12/12 00:15:08;;;;;;;10.98;2.45;;;19.70;53.20;;;;;;5054558;28;20052;-61
2020/12/12 00:17:34;;;;;;;5.25;2.88;;;19.70;53.20;;;;;;5056724;28;20076;-59
2020/12/12 00:20:01;;;;;;;6.63;1.77;;;19.70;53.50;;;;;;5052812;28;20770;-62
2020/12/12 00:22:28;;;;;;;8.88;2.45;;;19.70;53.50;;;;;;5059788;28;20523;-59
2020/12/12 00:24:54;;;;;;;6.78;2.28;;;19.70;53.40;;;;;;5064318;28;20487;-61
2020/12/12 00:27:21;;;;;;;5.35;1.15;;;19.70;53.10;;;;;;5063992;28;20128;-62
2020/12/12 00:29:49;;;;;;;4.10;1.38;;;19.70;53.10;;;;;;5065890;28;20043;-61
2020/12/12 00:32:15;;;;;;;3.75;2.30;;;19.70;53.10;;;;;;5054590;28;20064;-62
2020/12/12 00:34:42;;;;;;;5.93;1.33;;;19.70;53.00;;;;;;5054064;28;20510;-62
2020/12/12 00:37:08;;;;;;;8.65;1.90;;;19.70;53.00;;;;;;5069362;28;20111;-63
2020/12/12 00:39:36;;;;;;;8.93;1.20;;;19.70;53.00;;;;;;5071897;28;20071;-62
2020/12/12 00:42:03;;;;;;;7.03;1.42;;;19.70;52.90;;;;;;5063929;28;20051;-60
2020/12/12 00:44:29;;;;;;;4.63;0.95;;;19.70;53.00;;;;;;5061398;28;20064;-63
2020/12/12 00:46:56;;;;;;;5.35;2.08;;;19.70;53.00;;;;;;5056678;28;20075;-60
2020/12/12 00:49:23;;;;;;;8.95;1.23;;;19.70;53.00;;;;;;5056802;28;20036;-61
2020/12/12 00:51:50;;;;;;;4.68;1.20;;;19.70;53.00;;;;;;5059354;28;20055;-61
2020/12/12 00:54:17;;;;;;;11.68;1.55;;;19.80;53.10;;;;;;5055456;28;20063;-62
2020/12/12 00:56:43;;;;;;;3.72;0.47;;;19.70;53.10;;;;;;5059061;28;20053;-59
2020/12/12 00:59:10;;;;;;;4.10;0.98;;;19.70;53.00;;;;;;5059742;28;20049;-60
2020/12/12 01:01:37;;;;;;;3.92;0.63;;;19.70;53.00;;;;;;5058229;28;20598;-61
2020/12/12 01:04:04;;;;;;;4.28;1.73;;;19.80;53.10;;;;;;5057574;28;20510;-61
2020/12/12 01:06:30;;;;;;;4.28;1.23;;;19.80;52.90;;;;;;5059889;28;20090;-61
2020/12/12 01:08:57;;;;;;;3.38;0.85;;;19.80;53.10;;;;;;5060345;28;20152;-64
2020/12/12 01:11:23;;;;;;;4.13;0.98;;;19.80;52.90;;;;;;5073415;28;20097;-64
2020/12/12 01:13:50;;;;;;;2.03;0.65;;;19.80;52.90;;;;;;5076276;28;20140;-61
2020/12/12 01:16:16;;;;;;;2.40;0.70;;;19.80;52.80;;;;;;5074922;28;20040;-66
2020/12/12 01:18:43;;;;;;;4.57;0.88;;;19.80;52.90;;;;;;5049642;28;20051;-61
2020/12/12 01:21:15;;;;;;;2.53;0.70;;;19.80;52.70;;;;;;5057216;28;20044;-61
2020/12/12 01:23:42;;;;;;;3.80;0.68;;;19.80;52.90;;;;;;5063049;28;20044;-63
2020/12/12 01:26:08;;;;;;;2.20;0.60;;;19.80;52.90;;;;;;5062038;28;20048;-62
2020/12/12 01:28:35;;;;;;;2.33;0.60;;;19.80;52.90;;;;;;5059846;28;20505;-61
2020/12/12 01:31:03;;;;;;;4.93;1.17;;;19.80;52.90;;;;;;5062674;28;20102;-60
2020/12/12 01:33:30;;;;;;;3.72;0.80;;;19.80;53.00;;;;;;5049019;28;20083;-61
2020/12/12 01:35:56;;;;;;;2.95;0.60;;;19.80;53.10;;;;;;5055068;28;20045;-63
2020/12/12 01:38:24;;;;;;;2.72;0.68;;;19.80;53.00;;;;;;5055512;28;20041;-60
2020/12/12 01:40:54;;;;;;;2.78;0.73;;;19.80;52.90;;;;;;5054206;28;20121;-62
2020/12/12 01:43:21;;;;;;;1.20;0.50;;;19.80;52.90;;;;;;5052894;28;20489;-61
2020/12/12 01:45:47;;;;;;;0.57;0.57;;;19.80;52.90;;;;;;5048634;28;20828;-63
2020/12/12 01:48:14;;;;;;;3.05;1.60;;;19.80;52.90;;;;;;5054153;28;20516;-65
2020/12/12 01:50:41;;;;;;;0.80;0.38;;;19.90;52.90;;;;;;5051978;28;20049;-63
2020/12/12 01:53:08;;;;;;;6.70;0.98;;;19.80;52.90;;;;;;5057328;28;20048;-59
2020/12/12 01:55:36;;;;;;;2.65;0.57;;;19.80;52.90;;;;;;5061944;28;20051;-59
2020/12/12 01:58:03;;;;;;;2.72;0.32;;;19.80;52.80;;;;;;5051626;28;20049;-60
2020/12/12 02:00:30;;;;;;;1.95;0.30;;;19.80;52.90;;;;;;5049270;28;20041;-60
2020/12/12 02:02:57;;;;;;;0.80;0.50;;;19.80;52.90;;;;;;5051174;28;20106;-55
2020/12/12 02:05:42;;;;;;;2.15;0.30;;;19.80;53.10;;;;;;5057672;28;20091;-50
2020/12/12 02:08:11;;;;;;;11.38;0.47;;;19.80;53.20;;;;;;5057746;28;20102;-50
2020/12/12 02:10:41;;;;;;;4.32;0.43;;;19.80;53.20;;;;;;5058443;28;20044;-55
2020/12/12 02:13:08;;;;;;;2.13;0.40;;;19.80;53.30;;;;;;5063384;28;20051;-56
2020/12/12 02:15:35;;;;;;;6.72;0.30;;;19.80;53.20;;;;;;5055693;28;20502;-55
2020/12/12 02:18:02;;;;;;;5.15;0.68;;;19.80;53.20;;;;;;5057149;28;20048;-57
2020/12/12 02:20:29;;;;;;;1.65;0.65;;;19.90;53.30;;;;;;5057671;28;20136;-61
2020/12/12 02:22:57;;;;;;;4.15;0.60;;;19.90;53.20;;;;;;5059849;28;20048;-55
2020/12/12 02:25:23;;;;;;;1.88;0.60;;;19.90;53.20;;;;;;5066823;28;20148;-57
2020/12/12 02:27:51;;;;;;;2.05;0.30;;;19.90;53.20;;;;;;5050432;28;20053;-58
2020/12/12 02:30:38;;;;;;;3.20;0.60;;;19.90;53.20;;;;;;5046550;28;20056;-59
2020/12/12 02:33:06;;;;;;;3.92;0.47;;;19.90;53.20;;;;;;5061024;28;20096;-56
2020/12/12 02:35:34;;;;;;;4.40;0.32;;;19.90;53.20;;;;;;5055077;28;20519;-57
2020/12/12 02:38:01;;;;;;;2.28;0.60;;;19.90;53.20;;;;;;5058236;28;20051;-55
2020/12/12 02:40:28;;;;;;;2.75;0.38;;;19.80;53.10;;;;;;5056280;28;20119;-61
2020/12/12 02:42:55;;;;;;;1.13;0.43;;;19.90;53.10;;;;;;5065921;28;20056;-60
2020/12/12 02:45:37;;;;;;;7.03;0.52;;;19.90;53.00;;;;;;5051768;28;20135;-60
2020/12/12 02:48:03;;;;;;;2.55;0.20;;;19.90;52.90;;;;;;5058661;28;20048;-60
2020/12/12 02:50:30;;;;;;;1.23;0.30;;;19.90;52.90;;;;;;5059610;28;20072;-60
2020/12/12 02:52:56;;;;;;;1.02;0.30;;;19.90;53.00;;;;;;5062171;28;20136;-61
2020/12/12 02:55:24;;;;;;;4.80;0.63;;;19.90;52.60;;;;;;5064918;28;20039;-60
2020/12/12 02:57:50;;;;;;;2.28;0.30;;;19.90;52.70;;;;;;5052735;28;20136;-61
2020/12/12 03:00:20;;;;;;;1.88;0.43;;;19.90;52.70;;;;;;5059211;28;20143;-61
2020/12/12 03:02:47;;;;;;;1.52;0.22;;;19.90;52.60;;;;;;5055989;28;20086;-59
2020/12/12 03:05:14;;;;;;;0.95;0.20;;;19.90;52.60;;;;;;5056633;28;20048;-60
2020/12/12 03:07:40;;;;;;;0.50;0.20;;;19.90;53.20;;;;;;5057014;28;20583;-61
2020/12/12 03:10:07;;;;;;;1.42;0.45;;;19.90;52.70;;;;;;5054670;28;20155;-60
2020/12/12 03:12:35;;;;;;;2.35;0.20;;;19.90;52.70;;;;;;5051237;28;20057;-61
2020/12/12 03:15:04;;;;;;;1.65;0.25;;;19.90;52.70;;;;;;5057408;28;20076;-60
2020/12/12 03:17:31;;;;;;;4.60;0.38;;;19.90;52.60;;;;;;5057894;28;20389;-58
2020/12/12 03:19:58;;;;;;;2.10;0.15;;;19.90;52.60;;;;;;5053748;28;20572;-59
2020/12/12 03:22:24;;;;;;;2.40;0.73;;;19.90;52.60;;;;;;5054260;28;20040;-60
2020/12/12 03:24:51;;;;;;;1.83;0.20;;;19.90;52.60;;;;;;5064148;28;20051;-60
2020/12/12 03:27:17;;;;;;;1.88;0.25;;;19.90;52.50;;;;;;5057901;28;20128;-60
2020/12/12 03:29:45;;;;;;;1.77;0.25;;;19.90;52.60;;;;;;5054418;28;20150;-61
2020/12/12 03:32:12;;;;;;;1.88;0.20;;;19.90;52.60;;;;;;5055632;28;20132;-61
2020/12/12 03:34:40;;;;;;;1.55;0.20;;;19.90;52.60;;;;;;5055571;28;20055;-61
2020/12/12 03:37:07;;;;;;;2.58;0.30;;;19.90;52.50;;;;;;5060783;28;20060;-60
2020/12/12 03:39:34;;;;;;;0.98;0.13;;;19.90;52.50;;;;;;5050135;28;20120;-62
2020/12/12 03:42:00;;;;;;;1.30;0.20;;;19.90;52.50;;;;;;5056993;28;20067;-59
2020/12/12 03:44:28;;;;;;;1.35;0.20;;;19.90;52.70;;;;;;5058077;28;20057;-59
2020/12/12 03:46:55;;;;;;;1.48;0.45;;;20.00;52.80;;;;;;5055724;28;20128;-59
2020/12/12 03:49:25;;;;;;;1.38;0.20;;;19.90;52.70;;;;;;5054119;28;20094;-59
2020/12/12 03:51:51;;;;;;;0.93;0.10;;;20.00;52.70;;;;;;5051386;28;20511;-59
2020/12/12 03:54:18;;;;;;;2.38;0.63;;;19.90;52.40;;;;;;5068527;28;20043;-60
2020/12/12 03:56:44;;;;;;;4.25;0.20;;;20.00;52.20;;;;;;5054614;28;20144;-61
2020/12/12 03:59:11;;;;;;;3.25;0.30;;;19.90;51.90;;;;;;5055617;28;20076;-59
2020/12/12 04:01:37;;;;;;;2.22;0.25;;;19.90;51.90;;;;;;5056000;28;20045;-59
2020/12/12 04:04:05;;;;;;;3.65;0.13;;;20.00;52.00;;;;;;5053729;28;20075;-59
2020/12/12 04:06:32;;;;;;;3.80;0.25;;;20.00;52.00;;;;;;5050955;28;20049;-58
2020/12/12 04:08:59;;;;;;;4.95;0.60;;;20.00;52.00;;;;;;5052692;28;20115;-59
2020/12/12 04:11:25;;;;;;;1.85;0.10;;;20.00;51.80;;;;;;5058065;28;20044;-60
2020/12/12 04:13:52;;;;;;;2.28;0.35;;;20.00;51.80;;;;;;5055494;28;20159;-59
2020/12/12 04:16:19;;;;;;;1.80;0.15;;;20.00;51.70;;;;;;5053815;28;20116;-59
2020/12/12 04:18:45;;;;;;;1.30;0.30;;;20.00;51.80;;;;;;5062260;28;20575;-59
2020/12/12 04:21:13;;;;;;;1.85;0.30;;;20.00;51.70;;;;;;5055064;28;20389;-59
2020/12/12 04:23:43;;;;;;;2.83;0.45;;;20.00;51.80;;;;;;5065128;28;20049;-60
2020/12/12 04:26:11;;;;;;;1.02;0.10;;;20.00;51.80;;;;;;5055507;28;20049;-61
2020/12/12 04:28:38;;;;;;;1.75;0.22;;;20.00;51.70;;;;;;5051400;28;20044;-60
2020/12/12 04:31:06;;;;;;;2.50;0.30;;;20.00;51.50;;;;;;5053512;28;20049;-61
2020/12/12 04:33:32;;;;;;;0.63;0.10;;;20.00;51.50;;;;;;5050805;28;20049;-60
2020/12/12 04:35:59;;;;;;;2.45;0.22;;;20.00;51.40;;;;;;5052592;28;20052;-62
2020/12/12 04:38:29;;;;;;;2.42;0.13;;;20.00;51.70;;;;;;5056910;28;20045;-63
2020/12/12 04:40:58;;;;;;;2.35;0.10;;;20.00;51.60;;;;;;5055427;28;20147;-62
2020/12/12 04:43:26;;;;;;;2.58;0.10;;;20.00;51.70;;;;;;5054156;28;20126;-63
2020/12/12 04:45:53;;;;;;;0.75;0.30;;;20.00;51.70;;;;;;5050656;28;20106;-61
2020/12/12 04:48:19;;;;;;;1.02;0.10;;;20.00;51.50;;;;;;5057402;28;20052;-61
2020/12/12 04:50:47;;;;;;;2.22;0.30;;;20.00;51.50;;;;;;5053785;28;20798;-60
2020/12/12 04:53:16;;;;;;;3.75;0.20;;;20.00;51.60;;;;;;5059333;28;20052;-62
2020/12/12 04:55:45;;;;;;;3.22;0.30;;;20.00;51.60;;;;;;5062976;28;20411;-61
2020/12/12 04:58:15;;;;;;;1.40;0.20;;;20.00;51.60;;;;;;5054907;28;20443;-60
2020/12/12 05:00:44;;;;;;;3.80;0.40;;;20.00;51.60;;;;;;5047606;28;20044;-62
2020/12/12 05:03:13;;;;;;;2.00;0.13;;;20.00;51.60;;;;;;5056323;28;20520;-60
2020/12/12 05:05:40;;;;;;;1.95;0.50;;;20.00;51.50;;;;;;5056648;28;20064;-58
2020/12/12 05:08:08;;;;;;;1.63;0.22;;;20.00;51.50;;;;;;5054403;28;20041;-58
2020/12/12 05:10:39;;;;;;;1.20;0.10;;;20.00;51.50;;;;;;5054351;28;20051;-59
2020/12/12 05:13:18;;;;;;;3.08;0.20;;;20.00;51.50;;;;;;5047889;28;20501;-59
2020/12/12 05:16:03;;;;;;;2.13;0.45;;;20.00;51.50;;;;;;5052444;28;20059;-59
2020/12/12 05:18:29;;;;;;;1.85;0.25;;;20.00;51.40;;;;;;5051170;28;20052;-59
2020/12/12 05:20:56;;;;;;;1.23;0.30;;;19.90;51.30;;;;;;5058654;28;20131;-58
2020/12/12 05:23:24;;;;;;;2.15;0.20;;;20.00;51.30;;;;;;5060727;28;20052;-58
2020/12/12 05:25:56;;;;;;;1.30;0.20;;;19.90;51.20;;;;;;5060695;28;20520;-59
2020/12/12 05:28:25;;;;;;;1.00;0.20;;;19.90;51.20;;;;;;5053774;28;20076;-58
2020/12/12 05:30:53;;;;;;;0.45;0.13;;;19.90;51.20;;;;;;5049611;28;20142;-57
2020/12/12 05:33:21;;;;;;;2.50;0.60;;;20.00;51.30;;;;;;5053581;28;20695;-59
2020/12/12 05:35:48;;;;;;;2.53;0.10;;;19.90;51.20;;;;;;5054027;28;20068;-58
2020/12/12 05:38:15;;;;;;;2.30;0.25;;;20.00;51.20;;;;;;5054247;28;20048;-59
2020/12/12 05:40:43;;;;;;;2.85;0.20;;;20.00;51.20;;;;;;5053168;28;20522;-60
2020/12/12 05:43:11;;;;;;;0.80;0.30;;;19.90;51.10;;;;;;5052259;28;20484;-57
2020/12/12 05:45:41;;;;;;;1.60;0.10;;;19.90;51.10;;;;;;5050088;28;20532;-60
2020/12/12 05:48:08;;;;;;;0.60;0.10;;;19.90;51.10;;;;;;5064494;28;20135;-61
2020/12/12 05:50:35;;;;;;;2.70;0.10;;;19.90;51.00;;;;;;5061773;28;20045;-60
2020/12/12 05:53:02;;;;;;;1.73;0.20;;;20.00;51.10;;;;;;5055561;28;20049;-59
2020/12/12 05:55:33;;;;;;;4.38;0.17;;;19.90;51.00;;;;;;5053339;28;20052;-61
2020/12/12 05:58:01;;;;;;;2.95;0.10;;;19.90;51.00;;;;;;5055256;28;20045;-61
2020/12/12 06:00:29;;;;;;;1.13;0.10;;;19.90;51.00;;;;;;5060791;28;20492;-61
2020/12/12 06:02:58;;;;;;;0.75;0.10;;;19.90;51.00;;;;;;5064936;28;20109;-61
2020/12/12 06:05:27;;;;;;;1.27;0.10;;;19.90;50.90;;;;;;5060895;28;20056;-60
2020/12/12 06:07:55;;;;;;;2.20;0.10;;;19.90;50.90;;;;;;5056422;28;20071;-61
2020/12/12 06:10:26;;;;;;;2.85;0.10;;;19.90;50.90;;;;;;5051819;28;20098;-61
2020/12/12 06:12:58;;;;;;;1.63;0.10;;;19.90;50.90;;;;;;5058538;28;20570;-60
2020/12/12 06:15:33;;;;;;;2.28;0.20;;;19.90;50.90;;;;;;5062459;28;20093;-59
2020/12/12 06:18:29;;;;;;;1.17;0.47;;;19.90;50.90;;;;;;5059691;28;20040;-61
2020/12/12 06:20:56;;;;;;;1.70;0.10;;;19.90;50.80;;;;;;5059999;28;20048;-56
2020/12/12 06:23:22;;;;;;;1.27;0.38;;;19.90;50.80;;;;;;5060473;28;20044;-56
2020/12/12 06:25:49;;;;;;;2.47;0.30;;;19.90;50.80;;;;;;5061307;28;20119;-58
2020/12/12 06:28:21;;;;;;;1.83;0.10;;;19.90;50.70;;;;;;5061826;28;20037;-56
2020/12/12 06:30:49;;;;;;;0.60;0.10;;;19.90;50.80;;;;;;5063801;28;20040;-58
2020/12/12 06:33:16;;;;;;;2.22;0.10;;;19.90;50.80;;;;;;5063287;28;20483;-62
2020/12/12 06:35:43;;;;;;;3.92;0.52;;;19.90;50.80;;;;;;5063273;28;20041;-59
2020/12/12 06:38:21;;;;;;;1.65;0.22;;;19.90;50.70;;;;;;5065387;28;20580;-59
2020/12/12 06:40:49;;;;;;;2.00;0.10;;;20.00;50.80;;;;;;5062070;28;20510;-61
2020/12/12 06:43:30;;;;;;;1.30;0.10;;;19.90;50.80;;;;;;5062403;28;20114;-60
2020/12/12 06:45:58;;;;;;;2.83;0.52;;;19.90;50.80;;;;;;5056517;28;20535;-61
2020/12/12 06:48:28;;;;;;;1.10;0.10;;;19.90;50.80;;;;;;5050469;28;20520;-60
2020/12/12 06:50:55;;;;;;;5.78;0.10;;;19.90;50.70;;;;;;5059559;28;20078;-61
2020/12/12 06:53:23;;;;;;;5.25;0.10;;;19.90;50.70;;;;;;5067064;28;20065;-60
2020/12/12 06:56:10;;;;;;;1.38;0.30;;;19.90;50.70;;;;;;5063968;28;20094;-62
2020/12/12 06:58:38;;;;;;;2.08;0.20;;;19.90;50.60;;;;;;5057072;28;20068;-59
2020/12/12 07:01:26;;;;;;;1.45;0.10;;;19.90;50.70;;;;;;5065826;28;20065;-60
2020/12/12 07:03:58;;;;;;;3.58;0.38;;;20.00;50.80;;;;;;5045321;28;20049;-59
2020/12/12 07:06:25;;;;;;;4.65;0.22;;;19.90;50.70;;;;;;5058539;28;20068;-57
2020/12/12 07:08:52;;;;;;;1.95;0.20;;;19.80;50.70;;;;;;5067550;28;20893;-54
2020/12/12 07:11:25;;;;;;;7.43;0.65;;;19.80;50.60;;;;;;5064483;28;20869;-53
2020/12/12 07:13:53;;;;;;;1.70;0.10;;;19.80;50.70;;;;;;5056685;28;20053;-54
2020/12/12 07:16:22;;;;;;;1.02;0.10;;;19.90;50.70;;;;;;5050317;28;20052;-54
2020/12/12 07:18:49;;;;;;;1.95;0.10;;;19.90;50.70;;;;;;5053353;28;20037;-54
2020/12/12 07:21:18;;;;;;;2.08;0.20;;;19.80;50.60;;;;;;5067215;28;20045;-52
2020/12/12 07:23:44;;;;;;;3.05;0.20;;;19.80;50.60;;;;;;5065632;28;20079;-62
2020/12/12 07:26:12;;;;;;;4.00;0.10;;;19.80;50.60;;;;;;5061897;28;20041;-58
2020/12/12 07:28:38;;;;;;;1.77;0.68;;;19.80;50.60;;;;;;5056902;28;20049;-58
2020/12/12 07:31:06;;;;;;;1.05;0.10;;;19.80;50.60;;;;;;5059369;28;20071;-59
2020/12/12 07:33:32;;;;;;;2.55;0.35;;;19.80;50.60;;;;;;5065801;28;20130;-57
2020/12/12 07:36:00;;;;;;;1.75;0.10;;;19.90;50.60;;;;;;5064001;28;20103;-56
2020/12/12 07:38:28;;;;;;;1.27;0.10;;;19.80;50.60;;;;;;5064903;28;20051;-55
2020/12/12 07:40:55;;;;;;;3.80;0.10;;;19.80;50.60;;;;;;5064939;28;20045;-58
2020/12/12 07:43:21;;;;;;;1.35;0.10;;;19.80;50.60;;;;;;5063275;28;20049;-56
2020/12/12 07:45:59;;;;;;;4.70;0.10;;;19.90;50.60;;;;;;5064750;28;20048;-52
2020/12/12 07:48:25;;;;;;;6.43;0.10;;;19.80;50.60;;;;;;5055776;28;20049;-62
2020/12/12 07:50:52;;;;;;;0.98;0.10;;;19.80;50.50;;;;;;5064045;28;20149;-63
2020/12/12 07:53:20;;;;;;;1.90;0.10;;;19.80;50.40;;;;;;5057434;28;20052;-51
2020/12/12 07:55:55;;;;;;;1.35;0.13;;;19.80;50.40;;;;;;5056822;28;20157;-55
2020/12/12 07:58:25;;;;;;;0.57;0.10;;;19.80;50.40;;;;;;5063639;28;20075;-53
2020/12/12 08:00:59;;;;;;;1.50;0.75;;;19.80;50.40;;;;;;5058782;28;20052;-53
2020/12/12 08:03:26;;;;;;;1.48;0.10;;;19.80;51.00;;;;;;5052545;28;20512;-57
2020/12/12 08:06:06;;;;;;;2.13;0.17;;;19.80;50.40;;;;;;5058915;28;20164;-51
2020/12/12 08:08:33;;;;;;;1.10;0.30;;;19.80;50.40;;;;;;5053432;28;20049;-51
2020/12/12 08:11:02;;;;;;;1.40;0.10;;;19.90;50.40;;;;;;5051469;28;20052;-55
2020/12/12 08:13:30;;;;;;;2.20;0.22;;;19.80;50.30;;;;;;5053945;28;20037;-52
2020/12/12 08:16:03;;;;;;;3.05;0.10;;;19.80;50.20;;;;;;5053318;28;20064;-52
2020/12/12 08:18:30;;;;;;;2.60;0.20;;;19.80;50.20;;;;;;5056642;28;20045;-54
2020/12/12 08:21:10;;;;;;;1.42;0.20;;;19.80;50.20;;;;;;5061924;28;20043;-53
2020/12/12 08:23:38;;;;;;;3.17;0.35;;;19.80;50.20;;;;;;5057149;28;20049;-55
2020/12/12 08:26:07;;;;;;;1.92;0.30;;;19.80;50.20;;;;;;5052633;28;20060;-49
2020/12/12 08:28:34;;;;;;;2.13;1.20;;;19.80;50.20;;;;;;5056196;28;20035;-55
2020/12/12 08:31:12;;;;;;;3.55;0.50;;;19.80;50.20;;;;;;5050310;28;20048;-49
2020/12/12 08:33:38;;;;;;;9.57;0.20;;;19.80;50.10;;;;;;5054190;28;20045;-52
2020/12/12 08:36:13;;;;;;;10.13;1.55;;;19.80;50.10;;;;;;5053129;28;20041;-51
2020/12/12 08:38:42;;;;;;;14.52;0.20;;;19.90;50.20;;;;;;5051809;28;20045;-50
2020/12/12 08:41:13;;;;;;;11.20;0.38;;;19.80;50.20;;;;;;5057282;28;20048;-52
2020/12/12 08:43:44;;;;;;;2.08;0.30;;;19.80;50.20;;;;;;5053155;28;20111;-48
2020/12/12 08:46:15;;;;;;;5.32;0.60;;;19.80;50.20;;;;;;5051362;28;20044;-49
2020/12/12 08:48:43;;;;;;;9.07;0.13;;;19.80;50.20;;;;;;5053103;28;20828;-52
2020/12/12 08:51:11;;;;;;;12.68;0.50;;;19.80;50.20;;;;;;5056451;28;20488;-51
2020/12/12 08:53:39;;;;;;;5.05;0.10;;;19.80;50.20;;;;;;5062322;28;20130;-48
2020/12/12 08:56:11;;;;;;;3.55;0.40;;;19.80;50.20;;;;;;5057281;28;20045;-48
2020/12/12 08:58:48;;;;;;;7.32;1.45;;;19.80;50.20;;;;;;5052937;28;20041;-47
2020/12/12 09:01:17;;;;;;;4.28;0.30;;;19.80;50.20;;;;;;5052721;28;20051;-49
2020/12/12 09:04:01;;;;;;;6.63;0.10;;;19.80;50.30;;;;;;5048525;28;20052;-50
2020/12/12 09:06:33;;;;;;;2.80;0.10;;;19.80;50.30;;;;;;5051480;28;20106;-51
2020/12/12 09:09:14;;;;;;;11.30;0.98;;;19.80;50.30;;;;;;5054280;28;20420;-48
2020/12/12 09:11:42;;;;;;;2.00;0.15;;;19.80;50.20;;;;;;5052748;28;20053;-47
2020/12/12 09:14:10;;;;;;;4.43;0.35;;;19.80;50.30;;;;;;5053972;28;20055;-47
2020/12/12 09:16:38;;;;;;;2.60;0.30;;;19.80;50.30;;;;;;5054677;28;20407;-47
2020/12/12 09:19:06;;;;;;;7.68;0.10;;;19.80;50.30;;;;;;5052479;28;20084;-48
2020/12/12 09:21:34;;;;;;;1.40;0.20;;;19.80;50.30;;;;;;5050312;28;20091;-50
2020/12/12 09:24:01;;;;;;;1.35;0.20;;;19.80;50.30;;;;;;5052008;28;20040;-47
2020/12/12 09:26:28;;;;;;;7.05;0.20;;;19.80;50.30;;;;;;5054837;28;20099;-49
2020/12/12 09:28:54;;;;;;;5.53;0.63;;;19.80;50.30;;;;;;5051066;28;20041;-49
2020/12/12 09:31:23;;;;;;;2.47;0.57;;;19.80;50.30;;;;;;5051667;28;20103;-49
2020/12/12 09:33:49;;;;;;;0.85;0.17;;;19.80;50.30;;;;;;5050507;28;20048;-50
2020/12/12 09:36:16;;;;;;;3.03;0.75;;;19.80;50.30;;;;;;5054194;28;20090;-52
2020/12/12 09:38:44;;;;;;;2.38;0.20;;;19.80;50.30;;;;;;5051953;28;20078;-48
2020/12/12 09:41:11;;;;;;;1.85;0.22;;;19.80;50.30;;;;;;5057052;28;20125;-48
2020/12/12 09:43:38;;;;;;;3.10;0.20;;;19.80;50.40;;;;;;5059706;28;20057;-49
2020/12/12 09:46:06;;;;;;;10.15;1.40;;;19.80;50.40;;;;;;5051823;28;20164;-48
2020/12/12 09:48:35;;;;;;;1.17;0.20;;;19.80;50.40;;;;;;5050056;28;20130;-50
2020/12/12 09:51:01;;;;;;;1.50;0.45;;;19.80;50.50;;;;;;5051710;28;20045;-49
2020/12/12 09:53:28;;;;;;;0.68;0.40;;;19.80;50.40;;;;;;5055161;28;20048;-48
2020/12/12 09:55:56;;;;;;;1.67;0.20;;;19.80;50.40;;;;;;5051334;28;20248;-47
2020/12/12 09:58:23;;;;;;;3.30;0.28;;;19.80;50.40;;;;;;5051791;28;20045;-55
2020/12/12 10:00:50;;;;;;;4.20;0.15;;;19.80;50.30;;;;;;5047490;28;20393;-51
2020/12/12 10:03:18;;;;;;;1.20;0.35;;;19.80;50.40;;;;;;5053702;28;20445;-47
2020/12/12 10:05:46;;;;;;;1.52;0.75;;;19.80;50.40;;;;;;5051169;28;20071;-48
2020/12/12 10:08:16;;;;;;;1.65;0.10;;;19.80;50.40;;;;;;5054706;28;20072;-49
2020/12/12 10:10:43;;;;;;;1.58;0.50;;;19.80;50.40;;;;;;5053862;28;20115;-47
2020/12/12 10:13:09;;;;;;;1.25;0.20;;;19.80;51.00;;;;;;5052617;28;20045;-50
2020/12/12 10:15:36;;;;;;;0.70;0.52;;;19.80;50.40;;;;;;5049239;28;20068;-52
2020/12/12 10:18:02;;;;;;;3.85;0.45;;;19.80;50.40;;;;;;5055728;28;20076;-52
2020/12/12 10:20:29;;;;;;;1.63;0.45;;;19.80;50.40;;;;;;5057063;28;20072;-49
2020/12/12 10:22:56;;;;;;;0.82;0.10;;;19.80;50.40;;;;;;5056092;28;20082;-49
2020/12/12 10:25:23;;;;;;;2.00;0.43;;;19.80;50.50;;;;;;5062009;28;20508;-53
2020/12/12 10:27:49;;;;;;;0.65;0.30;;;19.80;50.50;;;;;;5053881;28;20171;-49
2020/12/12 10:30:16;;;;;;;3.25;0.50;;;19.80;50.50;;;;;;5061617;28;20128;-48
2020/12/12 10:32:43;;;;;;;2.40;0.40;;;19.80;50.50;;;;;;5055472;28;20052;-51
2020/12/12 10:35:11;;;;;;;3.22;0.47;;;19.80;50.50;;;;;;5053641;28;20084;-51
2020/12/12 10:37:38;;;;;;;0.95;0.20;;;19.80;50.40;;;;;;5059661;28;20110;-49
2020/12/12 10:40:13;;;;;;;2.30;0.68;;;19.80;50.40;;;;;;5055570;28;20033;-47
2020/12/12 10:42:40;;;;;;;1.27;0.40;;;19.80;50.40;;;;;;5052149;28;20455;-48
2020/12/12 10:45:07;;;;;;;2.45;0.47;;;19.80;50.50;;;;;;5063750;28;20101;-48
2020/12/12 10:47:34;;;;;;;1.67;0.28;;;19.80;50.60;;;;;;5062494;28;20386;-52
2020/12/12 10:50:01;;;;;;;2.05;0.20;;;19.80;50.60;;;;;;5057750;28;20040;-49
2020/12/12 10:52:27;;;;;;;5.18;0.73;;;19.80;50.60;;;;;;5063221;28;20040;-51
2020/12/12 10:54:54;;;;;;;1.17;0.35;;;19.80;50.50;;;;;;5066570;28;20079;-47
2020/12/12 10:57:22;;;;;;;1.35;0.20;;;19.80;50.60;;;;;;5065025;28;20052;-50
2020/12/12 10:59:48;;;;;;;3.15;0.40;;;19.80;50.60;;;;;;5065986;28;20063;-47
2020/12/12 11:02:15;;;;;;;1.95;0.50;;;19.80;50.60;;;;;;5063799;28;20094;-48
2020/12/12 11:04:43;;;;;;;4.22;0.88;;;19.80;50.60;;;;;;5063968;28;20117;-51
2020/12/12 11:07:10;;;;;;;2.63;0.45;;;19.80;50.60;;;;;;5066874;28;20040;-46
2020/12/12 11:09:38;;;;;;;2.63;0.38;;;19.80;50.60;;;;;;5062133;28;20040;-47
2020/12/12 11:12:06;;;;;;;0.93;0.28;;;19.80;50.60;;;;;;5067366;28;20041;-49
2020/12/12 11:14:35;;;;;;;1.90;0.10;;;19.80;50.60;;;;;;5064871;28;20506;-47
2020/12/12 11:17:02;;;;;;;5.07;1.40;;;19.80;50.70;;;;;;5065280;28;20588;-51
2020/12/12 11:19:30;;;;;;;1.45;0.20;;;19.80;50.60;;;;;;5066771;28;20086;-57
2020/12/12 11:21:57;;;;;;;0.88;0.30;;;19.80;50.70;;;;;;5057664;28;20433;-57
2020/12/12 11:24:24;;;;;;;3.13;0.52;;;19.80;51.00;;;;;;5059747;28;20087;-51
2020/12/12 11:26:51;;;;;;;5.57;0.80;;;19.80;51.10;;;;;;5070154;28;20583;-48
2020/12/12 11:29:19;;;;;;;3.72;0.40;;;19.80;51.10;;;;;;5062482;28;20143;-51
2020/12/12 11:31:49;;;;;;;3.42;0.50;;;19.80;51.40;;;;;;5062676;28;20114;-56
2020/12/12 11:34:21;;;;;;;4.55;0.63;;;19.80;51.30;;;;;;5064330;28;20123;-52
2020/12/12 11:39:36;;;;;;;3.97;0.60;;;19.80;51.50;;;;;;5056888;28;20041;-52
2020/12/12 11:47:41;;;;;;;2.42;0.30;;;19.80;51.60;;;;;;5059765;28;20040;-51
2020/12/12 11:50:07;;;;;;;2.83;0.90;;;19.80;51.70;;;;;;5071005;28;20538;-52
2020/12/12 11:52:36;;;;;;;2.28;0.20;;;19.80;52.30;;;;;;5066965;28;20067;-50
2020/12/12 11:55:04;;;;;;;1.10;0.40;;;19.80;51.80;;;;;;5059973;28;20048;-51
2020/12/12 11:57:31;;;;;;;3.65;1.02;;;19.90;51.90;;;;;;5065739;28;20051;-53
2020/12/12 12:00:02;;;;;;;2.45;0.45;;;19.90;51.90;;;;;;5064342;28;20041;-51
2020/12/12 12:02:32;;;;;;;3.95;0.47;;;19.90;51.70;;;;;;5062302;28;20132;-50
2020/12/12 12:04:59;;;;;;;2.15;0.40;;;19.80;51.70;;;;;;5063397;28;20408;-50
2020/12/12 12:07:26;;;;;;;4.25;0.30;;;19.90;51.60;;;;;;5061186;28;20508;-49
2020/12/12 12:10:03;;;;;;;2.92;0.50;;;19.90;51.60;;;;;;5067059;28;20175;-54
2020/12/12 12:12:30;;;;;;;4.95;0.75;;;19.90;51.60;;;;;;5059356;28;20049;-52
2020/12/12 12:14:57;;;;;;;3.38;0.95;;;19.90;51.60;;;;;;5063102;28;20339;-49
2020/12/12 12:17:23;;;;;;;4.88;1.05;;;19.90;51.50;;;;;;5062489;28;20060;-52
2020/12/12 12:19:50;;;;;;;1.98;0.60;;;19.90;51.50;;;;;;5062710;28;20055;-50
2020/12/12 12:22:17;;;;;;;4.10;0.50;;;19.90;51.70;;;;;;5061396;28;20159;-53
2020/12/12 12:24:44;;;;;;;5.63;0.93;;;19.90;51.60;;;;;;5062387;28;20048;-52
2020/12/12 12:27:11;;;;;;;6.18;1.20;;;19.90;51.60;;;;;;5065490;28;20832;-50
2020/12/12 12:29:38;;;;;;;2.28;0.50;;;19.90;51.50;;;;;;5062006;28;20500;-51
2020/12/12 12:32:04;;;;;;;3.22;0.75;;;20.00;51.70;;;;;;5061016;28;20056;-51
2020/12/12 12:34:31;;;;;;;9.88;0.85;;;19.90;51.70;;;;;;5059072;28;20106;-45
2020/12/12 12:36:58;;;;;;;8.52;1.55;;;19.90;51.60;;;;;;5055998;28;20048;-51
2020/12/12 12:39:25;;;;;;;3.53;0.68;;;19.90;51.80;;;;;;5057733;28;20049;-46
2020/12/12 12:41:52;;;;;;;3.53;0.45;;;19.90;51.70;;;;;;5054355;28;20474;-48
2020/12/12 12:44:18;;;;;;;1.70;0.57;;;20.00;51.60;;;;;;5061281;28;20045;-49
2020/12/12 12:46:48;;;;;;;11.07;0.68;;;19.90;51.50;;;;;;5052444;28;20441;-47
2020/12/12 12:49:16;;;;;;;4.07;0.20;;;19.90;51.60;;;;;;5055912;28;20044;-48
2020/12/12 12:51:43;;;;;;;2.60;0.22;;;19.90;51.60;;;;;;5055541;28;20128;-47
2020/12/12 12:54:09;;;;;;;3.65;0.73;;;19.90;51.50;;;;;;5058404;28;20051;-47
2020/12/12 12:56:38;;;;;;;3.83;0.25;;;19.90;51.50;;;;;;5052095;28;20045;-48
2020/12/12 12:59:05;;;;;;;2.30;0.30;;;19.90;51.50;;;;;;5054981;28;20508;-49